createdAt,value
2023-03-02T00:01:35.453Z,81.33
2023-03-02T00:04:05.857Z,80.07
2023-03-02T00:06:35.721Z,77.33
2023-03-02T00:09:06.471Z,78.67
2023-03-02T00:11:37.218Z,73.73
2023-03-02T00:14:05.532Z,74.67
2023-03-02T00:16:34.077Z,72.00
2023-03-02T00:19:02.312Z,71.80
2023-03-02T00:21:31.833Z,72.83
2023-03-02T00:24:00.011Z,73.23
2023-03-02T00:26:29.612Z,75.83
2023-03-02T00:28:57.735Z,78.73
2023-03-02T00:31:25.980Z,73.63
2023-03-02T00:33:54.919Z,80.07
2023-03-02T00:36:24.334Z,84.23
2023-03-02T00:38:53.261Z,82.93
2023-03-02T00:41:22.638Z,80.50
2023-03-02T00:43:52.525Z,78.93
2023-03-02T00:46:22.391Z,83.20
2023-03-02T00:48:51.114Z,74.07
2023-03-02T00:51:19.433Z,75.87
2023-03-02T00:53:47.519Z,75.77
2023-03-02T00:56:15.809Z,76.03
2023-03-02T00:58:48.843Z,73.87
2023-03-02T01:01:18.911Z,70.27
2023-03-02T01:03:50.761Z,71.03
2023-03-02T01:06:22.111Z,68.77
2023-03-02T01:08:50.340Z,73.00
2023-03-02T01:11:20.853Z,72.33
2023-03-02T01:13:50.251Z,69.00
2023-03-02T01:16:19.838Z,72.63
2023-03-02T01:18:47.964Z,71.40
2023-03-02T01:21:17.092Z,66.93
2023-03-02T01:23:45.189Z,63.77
2023-03-02T01:26:13.241Z,68.00
2023-03-02T01:28:41.252Z,68.07
2023-03-02T01:31:09.307Z,69.60
2023-03-02T01:33:38.719Z,67.40
2023-03-02T01:36:07.738Z,67.93
2023-03-02T01:38:35.929Z,65.60
2023-03-02T01:41:04.011Z,68.07
2023-03-02T01:43:32.124Z,69.03
2023-03-02T01:46:02.034Z,63.07
2023-03-02T01:49:01.688Z,67.17
2023-03-02T01:51:48.883Z,64.27
2023-03-02T01:54:23.322Z,61.80
2023-03-02T01:57:01.098Z,60.40
2023-03-02T01:59:32.728Z,62.57
2023-03-02T02:02:05.151Z,63.20
2023-03-02T02:04:38.653Z,63.80
2023-03-02T02:07:09.284Z,64.70
2023-03-02T02:09:42.421Z,61.93
2023-03-02T02:12:15.106Z,63.30
2023-03-02T02:14:44.441Z,63.47
2023-03-02T02:17:13.466Z,67.67
2023-03-02T02:20:07.209Z,65.83
2023-03-02T02:22:49.070Z,63.57
2023-03-02T02:25:27.492Z,60.90
2023-03-02T02:27:58.501Z,68.60
2023-03-02T02:30:28.156Z,66.90
2023-03-02T02:32:58.361Z,61.63
2023-03-02T02:35:30.407Z,63.30
2023-03-02T02:38:04.367Z,61.60
2023-03-02T02:40:52.109Z,59.70
2023-03-02T02:43:25.436Z,57.97
2023-03-02T02:45:56.625Z,59.47
2023-03-02T02:48:31.290Z,59.70
2023-03-02T02:51:02.978Z,57.90
2023-03-02T02:53:39.599Z,59.03
2023-03-02T02:56:09.916Z,60.17
2023-03-02T02:58:44.441Z,58.73
2023-03-02T03:01:15.180Z,58.07
2023-03-02T03:03:51.349Z,57.43
2023-03-02T03:06:25.709Z,56.23
2023-03-02T03:08:58.109Z,70.80
2023-03-02T03:11:35.417Z,76.33
2023-03-02T03:14:08.752Z,77.63
2023-03-02T03:16:38.847Z,75.73
2023-03-02T03:19:13.553Z,75.23
2023-03-02T03:21:41.823Z,69.73
2023-03-02T03:24:10.028Z,69.57
2023-03-02T03:26:38.245Z,70.50
2023-03-02T03:29:08.954Z,75.47
2023-03-02T03:31:37.689Z,67.30
2023-03-02T03:34:07.249Z,67.47
2023-03-02T03:36:38.509Z,64.50
2023-03-02T03:39:07.877Z,64.70
2023-03-02T03:41:36.232Z,63.73
2023-03-02T03:44:04.871Z,68.93
2023-03-02T03:46:36.879Z,66.60
2023-03-02T03:49:06.088Z,72.10
2023-03-02T03:51:35.600Z,75.70
2023-03-02T03:54:08.186Z,75.27
2023-03-02T03:56:46.014Z,70.77
2023-03-02T03:59:19.130Z,65.00
2023-03-02T04:02:08.525Z,61.07
2023-03-02T04:04:43.087Z,63.50
2023-03-02T04:07:18.669Z,72.97
2023-03-02T04:09:48.024Z,77.67
2023-03-02T04:12:17.070Z,75.40
2023-03-02T04:14:50.974Z,72.33
2023-03-02T04:17:20.537Z,65.87
2023-03-02T04:19:50.466Z,57.03
2023-03-02T04:22:20.198Z,57.27
2023-03-02T04:24:49.367Z,52.77
2023-03-02T04:27:18.735Z,56.40
2023-03-02T04:29:47.362Z,56.00
2023-03-02T04:32:16.009Z,54.20
2023-03-02T04:34:49.753Z,57.93
2023-03-02T04:37:17.879Z,60.93
2023-03-02T04:39:50.189Z,59.17
2023-03-02T04:42:18.876Z,57.40
2023-03-02T04:44:46.954Z,55.43
2023-03-02T04:47:15.395Z,57.97
2023-03-02T04:49:43.542Z,57.40
2023-03-02T04:52:13.205Z,58.60
2023-03-02T04:54:41.253Z,59.20
2023-03-02T04:57:10.004Z,64.30
2023-03-02T04:59:38.178Z,57.83
2023-03-02T05:02:06.439Z,59.30
2023-03-02T05:04:34.778Z,56.90
2023-03-02T05:07:02.826Z,56.93
2023-03-02T05:09:32.253Z,55.47
2023-03-02T05:12:01.929Z,57.60
2023-03-02T05:14:30.801Z,56.80
2023-03-02T05:16:59.183Z,56.03
2023-03-02T05:19:27.347Z,56.13
2023-03-02T05:21:56.585Z,51.77
2023-03-02T05:24:24.755Z,51.30
2023-03-02T05:26:54.242Z,55.67
2023-03-02T05:29:22.385Z,52.93
2023-03-02T05:31:51.297Z,53.83
2023-03-02T05:34:19.781Z,50.57
2023-03-02T05:36:47.881Z,49.37
2023-03-02T05:39:16.094Z,48.97
2023-03-02T05:41:44.146Z,49.97
2023-03-02T05:44:19.587Z,52.57
2023-03-02T05:46:49.694Z,53.47
2023-03-02T05:49:17.830Z,50.37
2023-03-02T05:51:45.915Z,48.23
2023-03-02T05:54:14.020Z,51.17
2023-03-02T05:56:42.103Z,52.23
2023-03-02T05:59:10.171Z,47.33
2023-03-02T06:01:39.857Z,48.53
2023-03-02T06:04:08.024Z,50.53
2023-03-02T06:06:36.385Z,46.67
2023-03-02T06:09:04.771Z,49.07
2023-03-02T06:11:32.834Z,45.33
2023-03-02T06:14:00.930Z,50.23
2023-03-02T06:16:29.038Z,50.57
2023-03-02T06:18:58.596Z,49.87
2023-03-02T06:21:27.001Z,55.63
2023-03-02T06:23:55.017Z,52.90
2023-03-02T06:26:23.066Z,56.83
2023-03-02T06:28:53.603Z,53.43
2023-03-02T06:31:22.448Z,52.10
2023-03-02T06:33:50.700Z,54.83
2023-03-02T06:36:20.431Z,56.30
2023-03-02T06:38:48.655Z,49.13
2023-03-02T06:41:17.167Z,48.83
2023-03-02T06:43:45.256Z,50.37
2023-03-02T06:46:13.814Z,64.57
2023-03-02T06:48:41.856Z,63.33
2023-03-02T06:51:09.993Z,62.23
2023-03-02T06:53:39.569Z,59.47
2023-03-02T06:56:08.850Z,55.80
2023-03-02T06:58:37.029Z,56.97
2023-03-02T07:01:07.919Z,54.63
2023-03-02T07:03:37.311Z,61.57
2023-03-02T07:06:05.822Z,56.63
2023-03-02T07:08:33.975Z,56.23
2023-03-02T07:11:06.628Z,52.57
2023-03-02T07:13:34.754Z,51.37
2023-03-02T07:16:07.487Z,50.10
2023-03-02T07:18:35.658Z,51.77
2023-03-02T07:21:03.712Z,49.63
2023-03-02T07:23:31.787Z,51.50
2023-03-02T07:25:59.991Z,55.90
2023-03-02T07:28:29.436Z,56.73
2023-03-02T07:30:57.537Z,48.67
2023-03-02T07:33:26.300Z,53.27
2023-03-02T07:35:54.464Z,50.47
2023-03-02T07:38:22.565Z,49.90
2023-03-02T07:40:50.744Z,53.20
2023-03-02T07:43:18.816Z,50.63
2023-03-02T07:45:48.268Z,48.07
2023-03-02T07:48:16.285Z,50.13
2023-03-02T07:50:44.417Z,52.50
2023-03-02T07:53:12.437Z,52.73
2023-03-02T07:55:41.965Z,54.00
2023-03-02T07:58:09.974Z,50.93
2023-03-02T08:00:41.193Z,49.43
2023-03-02T08:03:11.875Z,54.93
2023-03-02T08:05:40.035Z,53.87
2023-03-02T08:08:08.193Z,58.50
2023-03-02T08:10:36.774Z,58.57
2023-03-02T08:13:06.058Z,53.10
2023-03-02T08:15:34.102Z,53.23
2023-03-02T08:18:02.369Z,57.30
2023-03-02T08:20:31.836Z,52.57
2023-03-02T08:22:59.939Z,55.07
2023-03-02T08:25:28.991Z,59.03
2023-03-02T08:27:57.063Z,56.37
2023-03-02T08:30:25.548Z,56.47
2023-03-02T08:32:53.559Z,57.63
2023-03-02T08:35:22.299Z,55.53
2023-03-02T08:37:51.748Z,58.27
2023-03-02T08:40:20.149Z,62.47
2023-03-02T08:42:49.895Z,54.53
2023-03-02T08:45:19.587Z,53.40
2023-03-02T08:47:47.751Z,51.90
2023-03-02T08:50:15.942Z,56.07
2023-03-02T08:52:44.004Z,52.80
2023-03-02T08:55:14.037Z,53.40
2023-03-02T08:57:42.663Z,51.93
2023-03-02T09:00:14.846Z,50.13
2023-03-02T09:02:43.033Z,50.07
2023-03-02T09:05:12.382Z,50.03
2023-03-02T09:07:40.470Z,49.47
2023-03-02T09:10:09.173Z,51.80
2023-03-02T09:12:38.704Z,50.87
2023-03-02T09:15:07.958Z,51.23
2023-03-02T09:17:36.481Z,53.30
2023-03-02T09:20:04.915Z,46.93
2023-03-02T09:22:35.896Z,55.57
2023-03-02T09:25:04.080Z,53.03
2023-03-02T09:27:32.180Z,49.50
2023-03-02T09:30:01.615Z,50.13
2023-03-02T09:32:29.890Z,50.00
2023-03-02T09:34:57.954Z,53.30
2023-03-02T09:37:26.102Z,52.27
2023-03-02T09:39:54.305Z,49.50
2023-03-02T09:42:43.610Z,47.23
2023-03-02T09:45:24.878Z,43.33
2023-03-02T09:48:05.425Z,45.17
2023-03-02T09:50:36.609Z,49.07
2023-03-02T09:53:20.608Z,43.10
2023-03-02T09:55:54.851Z,46.50
2023-03-02T09:58:26.513Z,46.77
2023-03-02T10:00:56.140Z,42.80
2023-03-02T10:03:29.344Z,42.10
2023-03-02T10:05:58.013Z,40.77
2023-03-02T10:08:29.832Z,40.93
2023-03-02T10:11:06.776Z,44.43
2023-03-02T10:13:44.636Z,45.40
2023-03-02T10:16:24.599Z,42.40
2023-03-02T10:19:09.487Z,43.23
2023-03-02T10:21:40.715Z,40.67
2023-03-02T10:24:21.158Z,40.47
2023-03-02T10:26:54.371Z,46.17
2023-03-02T10:29:33.980Z,40.10
2023-03-02T10:32:17.469Z,35.93
2023-03-02T10:34:45.575Z,36.70
2023-03-02T10:37:19.588Z,35.37
2023-03-02T10:39:47.678Z,34.40
2023-03-02T10:42:19.634Z,34.60
2023-03-02T10:44:52.187Z,37.33
2023-03-02T10:47:26.188Z,35.93
2023-03-02T10:49:54.825Z,34.53
2023-03-02T10:52:24.552Z,36.27
2023-03-02T10:55:03.802Z,33.00
2023-03-02T10:57:37.818Z,29.93
2023-03-02T11:00:16.064Z,30.07
2023-03-02T11:02:52.642Z,34.47
2023-03-02T11:05:27.404Z,30.83
2023-03-02T11:07:56.912Z,28.40
2023-03-02T11:10:26.836Z,31.07
2023-03-02T11:12:55.171Z,37.37
2023-03-02T11:15:26.567Z,27.23
2023-03-02T11:18:01.935Z,29.83
2023-03-02T11:20:35.112Z,22.50
2023-03-02T11:23:14.341Z,23.20
2023-03-02T11:25:48.852Z,19.90
2023-03-02T11:28:31.883Z,23.70
2023-03-02T11:31:03.871Z,22.37
2023-03-02T11:33:38.543Z,26.27
2023-03-02T11:36:13.752Z,22.77
2023-03-02T11:38:48.237Z,23.60
2023-03-02T11:41:30.000Z,22.87
2023-03-02T11:44:02.196Z,26.57
2023-03-02T11:46:33.460Z,26.70
2023-03-02T11:49:06.596Z,24.57
2023-03-02T11:51:39.098Z,23.57
2023-03-02T11:54:20.441Z,24.03
2023-03-02T11:56:48.761Z,21.57
2023-03-02T11:59:20.917Z,19.93
2023-03-02T12:01:53.369Z,18.90
2023-03-02T12:04:33.432Z,18.53
2023-03-02T12:07:03.234Z,20.83
2023-03-02T12:09:36.254Z,21.13
2023-03-02T12:12:36.527Z,20.10
2023-03-02T12:15:28.049Z,19.73
2023-03-02T12:17:56.282Z,21.40
2023-03-02T12:20:28.709Z,23.70
2023-03-02T12:23:08.955Z,22.52
2023-03-02T12:25:51.370Z,22.20
2023-03-02T12:28:34.169Z,28.50
2023-03-02T12:31:19.874Z,25.20
2023-03-02T12:33:50.559Z,25.50
2023-03-02T12:36:28.278Z,25.30
2023-03-02T12:39:15.144Z,25.42
2023-03-02T12:42:10.886Z,29.70
2023-03-02T12:44:53.584Z,25.17
2023-03-02T12:47:27.702Z,30.70
2023-03-02T12:49:59.066Z,24.63
2023-03-02T12:52:33.678Z,25.00
2023-03-02T12:55:05.314Z,25.77
2023-03-02T12:57:33.857Z,24.65
2023-03-02T13:00:03.808Z,23.50
2023-03-02T13:02:33.947Z,22.83
2023-03-02T13:05:04.557Z,25.58
2023-03-02T13:07:41.282Z,32.47
2023-03-02T13:10:22.730Z,25.38
2023-03-02T13:12:50.927Z,28.27
2023-03-02T13:15:20.014Z,30.70
2023-03-02T13:17:55.529Z,23.70
2023-03-02T13:20:27.606Z,27.45
2023-03-02T13:22:57.655Z,24.10
2023-03-02T13:25:29.271Z,24.77
2023-03-02T13:28:00.770Z,24.50
2023-03-02T13:30:31.726Z,23.40
2023-03-02T13:33:03.320Z,24.17
2023-03-02T13:35:33.922Z,24.70
2023-03-02T13:38:06.189Z,22.75
2023-03-02T13:40:44.871Z,23.08
2023-03-02T13:43:38.265Z,22.25
2023-03-02T13:46:25.861Z,20.83
2023-03-02T13:49:09.107Z,22.98
2023-03-02T13:51:42.101Z,20.90
2023-03-02T13:54:22.216Z,21.85
2023-03-02T13:56:52.199Z,19.85
2023-03-02T13:59:22.310Z,20.23
2023-03-02T14:01:50.948Z,17.30
2023-03-02T14:04:23.417Z,16.42
2023-03-02T14:06:52.563Z,15.13
2023-03-02T14:09:22.355Z,15.25
2023-03-02T14:11:53.161Z,16.08
2023-03-02T14:14:23.691Z,17.23
2023-03-02T14:16:52.096Z,16.65
2023-03-02T14:19:20.452Z,16.55
2023-03-02T14:21:49.036Z,19.85
2023-03-02T14:24:17.107Z,17.65
2023-03-02T14:26:49.264Z,18.55
2023-03-02T14:29:22.906Z,18.30
2023-03-02T14:31:51.089Z,21.23
2023-03-02T14:34:19.490Z,19.30
2023-03-02T14:36:49.601Z,20.30
2023-03-02T14:39:22.947Z,20.58
2023-03-02T14:41:54.743Z,20.67
2023-03-02T14:44:23.881Z,19.98
2023-03-02T14:46:53.025Z,17.92
2023-03-02T14:49:21.605Z,20.27
2023-03-02T14:51:59.380Z,17.30
2023-03-02T14:54:28.448Z,22.17
2023-03-02T14:56:57.988Z,18.95
2023-03-02T14:59:26.034Z,18.88
2023-03-02T15:01:55.763Z,19.50
2023-03-02T15:04:25.896Z,21.63
2023-03-02T15:06:54.931Z,21.75
2023-03-02T15:09:23.004Z,21.25
2023-03-02T15:11:51.114Z,22.70
2023-03-02T15:14:20.663Z,21.55
2023-03-02T15:16:49.245Z,21.48
2023-03-02T15:19:17.290Z,21.73
2023-03-02T15:21:46.555Z,20.42
2023-03-02T15:24:14.676Z,23.10
2023-03-02T15:26:42.798Z,21.45
2023-03-02T15:29:11.133Z,21.38
2023-03-02T15:31:41.004Z,26.23
2023-03-02T15:34:09.195Z,21.90
2023-03-02T15:36:37.236Z,29.80
2023-03-02T15:39:07.896Z,21.70
2023-03-02T15:41:36.215Z,20.65
2023-03-02T15:44:04.438Z,26.17
2023-03-02T15:46:32.601Z,19.75
2023-03-02T15:49:02.190Z,21.13
2023-03-02T15:51:30.490Z,22.17
2023-03-02T15:53:59.439Z,30.98
2023-03-02T15:56:32.885Z,26.48
2023-03-02T15:59:07.128Z,22.50
2023-03-02T16:01:35.274Z,25.13
2023-03-02T16:04:04.754Z,27.33
2023-03-02T16:06:33.035Z,29.17
2023-03-02T16:09:01.182Z,25.57
2023-03-02T16:11:29.345Z,24.70
2023-03-02T16:13:57.440Z,24.80
2023-03-02T16:16:26.338Z,25.97
2023-03-02T16:18:55.539Z,28.30
2023-03-02T16:21:25.955Z,22.20
2023-03-02T16:23:54.819Z,23.07
2023-03-02T16:26:23.797Z,21.57
2023-03-02T16:28:51.957Z,27.57
2023-03-02T16:31:21.963Z,29.90
2023-03-02T16:33:51.722Z,24.17
2023-03-02T16:36:20.158Z,27.07
2023-03-02T16:38:50.660Z,28.43
2023-03-02T16:41:21.576Z,25.60
2023-03-02T16:43:56.615Z,26.80
2023-03-02T16:46:27.291Z,26.33
2023-03-02T16:48:55.820Z,24.03
2023-03-02T16:51:24.107Z,23.43
2023-03-02T16:53:53.709Z,23.10
2023-03-02T16:56:21.974Z,26.97
2023-03-02T16:58:50.146Z,26.07
2023-03-02T17:01:28.284Z,24.82
2023-03-02T17:03:57.520Z,27.97
2023-03-02T17:06:25.994Z,32.70
2023-03-02T17:08:55.611Z,27.80
2023-03-02T17:11:24.437Z,29.07
2023-03-02T17:13:52.654Z,29.43
2023-03-02T17:16:20.875Z,34.07
2023-03-02T17:18:49.002Z,31.40
2023-03-02T17:21:18.413Z,37.77
2023-03-02T17:23:48.160Z,34.87
2023-03-02T17:26:18.076Z,31.17
2023-03-02T17:28:46.208Z,31.90
2023-03-02T17:31:14.383Z,32.00
2023-03-02T17:33:42.532Z,31.83
2023-03-02T17:36:12.371Z,34.33
2023-03-02T17:38:40.851Z,31.87
2023-03-02T17:41:10.189Z,32.13
2023-03-02T17:43:43.962Z,35.27
2023-03-02T17:46:14.604Z,45.37
2023-03-02T17:48:43.972Z,66.23
2023-03-02T17:51:15.019Z,59.77
2023-03-02T17:53:43.376Z,60.40
2023-03-02T17:56:12.701Z,57.77
2023-03-02T17:58:45.300Z,55.20
2023-03-02T18:01:15.920Z,50.33
2023-03-02T18:03:45.674Z,53.77
2023-03-02T18:06:14.427Z,52.43
2023-03-02T18:08:42.622Z,54.87
2023-03-02T18:11:11.295Z,52.63
2023-03-02T18:13:40.273Z,55.27
2023-03-02T18:16:10.452Z,56.23
2023-03-02T18:18:38.839Z,59.40
2023-03-02T18:21:07.498Z,60.90
2023-03-02T18:23:35.711Z,53.53
2023-03-02T18:26:03.864Z,55.97
2023-03-02T18:28:32.028Z,58.43
2023-03-02T18:31:00.260Z,56.50
2023-03-02T18:33:29.811Z,59.40
2023-03-02T18:35:58.539Z,61.60
2023-03-02T18:38:30.845Z,55.20
2023-03-02T18:41:00.789Z,60.40
2023-03-02T18:43:29.759Z,59.00
2023-03-02T18:45:58.116Z,55.87
2023-03-02T18:48:26.466Z,60.17
2023-03-02T18:50:56.325Z,57.50
2023-03-02T18:53:24.629Z,59.80
2023-03-02T18:55:55.610Z,55.23
2023-03-02T18:58:25.349Z,58.37
2023-03-02T19:00:54.222Z,56.63
2023-03-02T19:03:22.487Z,56.90
2023-03-02T19:05:50.625Z,57.20
2023-03-02T19:08:20.665Z,65.03
2023-03-02T19:10:48.888Z,64.47
2023-03-02T19:13:17.133Z,71.43
2023-03-02T19:15:45.561Z,74.57
2023-03-02T19:18:16.227Z,70.00
2023-03-02T19:20:45.728Z,69.13
2023-03-02T19:23:14.276Z,68.97
2023-03-02T19:25:44.476Z,67.67
2023-03-02T19:28:12.838Z,64.87
2023-03-02T19:30:41.229Z,67.67
2023-03-02T19:33:10.028Z,68.20
2023-03-02T19:35:39.333Z,66.40
2023-03-02T19:38:08.544Z,68.10
2023-03-02T19:40:37.992Z,72.23
2023-03-02T19:43:07.803Z,66.07
2023-03-02T19:45:36.389Z,70.43
2023-03-02T19:48:05.895Z,67.77
2023-03-02T19:50:34.322Z,69.73
2023-03-02T19:53:02.631Z,69.13
2023-03-02T19:55:30.766Z,70.43
2023-03-02T19:58:02.082Z,72.17
2023-03-02T20:00:33.956Z,70.30
2023-03-02T20:03:02.132Z,73.57
2023-03-02T20:05:30.663Z,73.37
2023-03-02T20:07:59.909Z,68.87
2023-03-02T20:10:31.446Z,67.97
2023-03-02T20:13:00.899Z,74.03
2023-03-02T20:15:30.015Z,68.43
2023-03-02T20:18:02.637Z,70.67
2023-03-02T20:20:31.824Z,67.80
2023-03-02T20:23:00.361Z,69.17
2023-03-02T20:25:29.384Z,69.20
2023-03-02T20:27:58.459Z,71.77
2023-03-02T20:30:30.726Z,68.50
2023-03-02T20:33:02.008Z,70.73
2023-03-02T20:35:32.236Z,70.30
2023-03-02T20:38:02.497Z,65.47
2023-03-02T20:40:31.096Z,70.90
2023-03-02T20:42:59.312Z,66.70
2023-03-02T20:45:28.195Z,68.40
2023-03-02T20:47:56.587Z,66.77
2023-03-02T20:50:29.406Z,73.03
2023-03-02T20:52:57.851Z,69.00
2023-03-02T20:55:26.974Z,67.67
2023-03-02T20:57:55.359Z,68.87
2023-03-02T21:00:26.395Z,67.23
2023-03-02T21:02:54.915Z,72.07
2023-03-02T21:05:23.147Z,72.30
2023-03-02T21:07:53.048Z,71.33
2023-03-02T21:10:25.196Z,81.37
2023-03-02T21:12:53.373Z,74.07
2023-03-02T21:15:23.910Z,74.70
2023-03-02T21:17:54.652Z,77.27
2023-03-02T21:20:23.880Z,83.33
2023-03-02T21:22:53.392Z,72.10
2023-03-02T21:25:21.853Z,74.70
2023-03-02T21:27:50.162Z,73.13
2023-03-02T21:30:20.909Z,76.17
2023-03-02T21:32:49.531Z,76.40
2023-03-02T21:35:20.071Z,75.90
2023-03-02T21:37:50.220Z,77.73
2023-03-02T21:40:23.149Z,75.33
2023-03-02T21:42:51.360Z,79.30
2023-03-02T21:45:19.663Z,82.57
2023-03-02T21:47:48.317Z,79.97
2023-03-02T21:50:20.574Z,77.97
2023-03-02T21:52:48.667Z,81.63
2023-03-02T21:55:17.082Z,81.77
2023-03-02T21:57:46.508Z,79.50
2023-03-02T22:00:22.177Z,76.40
2023-03-02T22:02:50.856Z,78.40
2023-03-02T22:05:19.356Z,79.97
2023-03-02T22:07:47.756Z,82.53
2023-03-02T22:10:26.032Z,79.77
2023-03-02T22:12:58.607Z,78.07
2023-03-02T22:15:28.192Z,77.70
2023-03-02T22:17:56.687Z,74.97
2023-03-02T22:20:25.140Z,76.60
2023-03-02T22:22:55.292Z,77.70
2023-03-02T22:25:23.417Z,77.83
2023-03-02T22:27:51.795Z,76.53
2023-03-02T22:30:24.462Z,76.20
2023-03-02T22:32:52.539Z,76.27
2023-03-02T22:35:23.445Z,76.80
2023-03-02T22:37:53.013Z,77.90
2023-03-02T22:40:30.171Z,75.60
2023-03-02T22:43:11.117Z,78.47
2023-03-02T22:45:42.459Z,76.27
2023-03-02T22:48:19.074Z,77.97
2023-03-02T22:50:49.082Z,78.97
2023-03-02T22:53:25.284Z,78.67
2023-03-02T22:55:56.955Z,80.00
2023-03-02T22:58:46.656Z,82.50
2023-03-02T23:01:24.892Z,81.70
2023-03-02T23:03:56.590Z,78.47
2023-03-02T23:06:28.212Z,79.57
2023-03-02T23:08:58.560Z,78.47
2023-03-02T23:11:27.881Z,77.47
2023-03-02T23:13:56.972Z,77.47
2023-03-02T23:16:29.323Z,78.53
2023-03-02T23:18:59.436Z,78.97
2023-03-02T23:21:31.292Z,78.77
2023-03-02T23:23:59.399Z,77.73
2023-03-02T23:26:27.781Z,81.13
2023-03-02T23:28:55.839Z,80.83
2023-03-02T23:31:23.967Z,80.80
2023-03-02T23:33:53.393Z,81.67
2023-03-02T23:36:21.643Z,79.00
2023-03-02T23:38:50.271Z,79.97
2023-03-02T23:41:18.590Z,80.23
2023-03-02T23:43:47.221Z,81.87
2023-03-02T23:46:15.408Z,80.97
2023-03-02T23:48:44.434Z,82.60
2023-03-02T23:51:13.921Z,83.73
2023-03-02T23:53:41.937Z,83.70
2023-03-02T23:56:10.137Z,82.23
2023-03-02T23:58:38.759Z,86.83
